Time;durP1;ratioP1;P1;durP2;ratioP2;P2;SDS_P1;SDS_P2;PMS_P1;PMS_P2;Temp;Humidity;BMP_temperature;BMP_pressure;BME280_temperature;BME280_humidity;BME280_pressure;Samples;Min_cycle;Max_cycle;Signal;HPM_P1;HPM_P2
2023/09/04 00:00:10;;;;;;;1.92;1.83;;;;;;;19.22;100.00;97420.44;5119407;28;20209;-56
2023/09/04 00:02:37;;;;;;;2.20;2.10;;;;;;;19.20;100.00;97417.13;5119235;28;20459;-55
2023/09/04 00:05:03;;;;;;;2.35;2.15;;;;;;;19.17;100.00;97415.59;5118108;28;20278;-55
2023/09/04 00:07:30;;;;;;;2.50;1.92;;;;;;;19.14;100.00;97420.47;5119333;28;20193;-54
2023/09/04 00:09:57;;;;;;;2.30;2.10;;;;;;;19.10;100.00;97414.63;5119770;28;20208;-56
2023/09/04 00:12:25;;;;;;;2.58;2.38;;;;;;;19.09;100.00;97414.84;5119104;28;20572;-55
2023/09/04 00:14:52;;;;;;;2.20;2.00;;;;;;;19.03;100.00;97418.19;5119311;28;20200;-54
2023/09/04 00:17:20;;;;;;;3.35;2.10;;;;;;;18.99;100.00;97427.63;5119996;28;20212;-55
2023/09/04 00:19:46;;;;;;;1.90;1.80;;;;;;;18.92;100.00;97421.31;5120622;28;20209;-57
2023/09/04 00:22:13;;;;;;;2.15;2.05;;;;;;;18.87;100.00;97416.47;5120177;28;20205;-56
2023/09/04 00:24:40;;;;;;;2.88;2.47;;;;;;;18.81;100.00;97417.19;5123853;28;20232;-56
2023/09/04 00:27:06;;;;;;;2.22;2.13;;;;;;;18.77;100.00;97413.19;5125531;28;20219;-55
2023/09/04 00:29:34;;;;;;;2.63;2.03;;;;;;;18.76;100.00;97416.84;5124813;28;20209;-54
2023/09/04 00:32:02;;;;;;;2.08;1.98;;;;;;;18.68;100.00;97420.41;5120507;28;20201;-56
2023/09/04 00:34:28;;;;;;;2.17;2.00;;;;;;;18.64;100.00;97421.75;5114228;28;20193;-56
2023/09/04 00:36:55;;;;;;;2.17;2.08;;;;;;;18.62;100.00;97414.91;5114706;28;20205;-55
2023/09/04 00:39:21;;;;;;;2.20;2.10;;;;;;;18.57;100.00;97411.91;5113849;28;20212;-55
2023/09/04 00:41:48;;;;;;;2.38;2.17;;;;;;;18.56;100.00;97405.75;5113735;28;20197;-54
2023/09/04 00:44:14;;;;;;;2.40;2.00;;;;;;;18.57;100.00;97414.59;5113529;28;20228;-55
2023/09/04 00:46:43;;;;;;;2.00;1.90;;;;;;;18.52;100.00;97409.78;5113699;28;20201;-54
2023/09/04 00:49:10;;;;;;;2.15;2.03;;;;;;;18.50;100.00;97403.72;5113507;28;20262;-55
2023/09/04 00:51:36;;;;;;;1.75;1.65;;;;;;;18.52;100.00;97408.94;5113517;28;20197;-55
2023/09/04 00:54:04;;;;;;;2.05;1.92;;;;;;;18.52;100.00;97403.59;5113594;28;21453;-54
2023/09/04 00:56:30;;;;;;;1.77;1.58;;;;;;;18.49;100.00;97407.41;5113380;28;20216;-54
2023/09/04 00:58:56;;;;;;;2.38;2.08;;;;;;;18.46;100.00;97399.69;5112902;28;20208;-55
2023/09/04 01:01:24;;;;;;;1.73;1.60;;;;;;;18.47;100.00;97400.53;5112838;28;20742;-55
2023/09/04 01:03:52;;;;;;;2.00;1.90;;;;;;;18.49;100.00;97394.03;5112589;28;20205;-55
2023/09/04 01:06:18;;;;;;;2.47;1.73;;;;;;;18.47;100.00;97390.66;5112841;28;20212;-56
2023/09/04 01:08:45;;;;;;;3.22;2.28;;;;;;;18.42;100.00;97397.56;5112864;28;20514;-57
2023/09/04 01:11:16;;;;;;;2.13;1.92;;;;;;;18.43;100.00;97394.69;5111937;28;20239;-56
2023/09/04 01:13:45;;;;;;;1.75;1.65;;;;;;;18.41;100.00;97391.38;5111801;28;20197;-56
2023/09/04 01:16:12;;;;;;;2.17;1.98;;;;;;;18.36;100.00;97389.22;5114712;28;20204;-54
2023/09/04 01:18:39;;;;;;;1.40;1.30;;;;;;;18.37;100.00;97390.03;5116205;28;20533;-55
2023/09/04 01:21:07;;;;;;;1.85;1.75;;;;;;;18.35;100.00;97392.06;5096769;28;20213;-55
2023/09/04 01:23:36;;;;;;;1.70;1.60;;;;;;;18.31;100.00;97380.03;5112805;28;20204;-55
2023/09/04 01:26:10;;;;;;;1.92;1.83;;;;;;;18.29;100.00;97382.03;5112401;28;20216;-55
2023/09/04 01:28:42;;;;;;;2.13;2.03;;;;;;;18.28;100.00;97388.41;5111500;28;20225;-56
2023/09/04 01:31:15;;;;;;;1.80;1.70;;;;;;;18.28;100.00;97383.88;5112125;28;20200;-55
2023/09/04 01:33:44;;;;;;;2.45;2.25;;;;;;;18.30;100.00;97373.00;5112494;28;20205;-55
2023/09/04 01:36:14;;;;;;;4.03;1.88;;;;;;;18.29;100.00;97382.88;5111171;28;20212;-55
2023/09/04 01:38:40;;;;;;;1.85;1.75;;;;;;;18.28;100.00;97380.38;5112634;28;20212;-54
2023/09/04 01:41:07;;;;;;;2.00;1.90;;;;;;;18.22;100.00;97383.72;5111739;28;20213;-54
2023/09/04 01:43:34;;;;;;;2.20;1.92;;;;;;;18.18;100.00;97387.75;5112275;28;20204;-55
2023/09/04 01:46:00;;;;;;;1.90;1.80;;;;;;;18.13;100.00;97382.94;5111775;28;20225;-56
2023/09/04 01:48:27;;;;;;;3.42;2.00;;;;;;;18.12;100.00;97380.41;5111704;28;20205;-54
2023/09/04 01:50:54;;;;;;;1.70;1.60;;;;;;;18.14;100.00;97378.44;5111181;28;20215;-56
2023/09/04 01:53:22;;;;;;;2.33;1.85;;;;;;;18.06;100.00;97378.44;5112100;28;20234;-55
2023/09/04 01:55:49;;;;;;;1.92;1.83;;;;;;;18.00;100.00;97376.44;5111440;28;20727;-56
2023/09/04 01:58:15;;;;;;;1.95;1.73;;;;;;;17.96;100.00;97380.47;5111695;28;20529;-55
2023/09/04 02:00:43;;;;;;;2.17;1.98;;;;;;;17.90;100.00;97380.16;5111754;28;20197;-55
2023/09/04 02:03:09;;;;;;;1.52;1.42;;;;;;;17.83;100.00;97383.66;5111892;28;20208;-56
2023/09/04 02:05:38;;;;;;;2.22;1.95;;;;;;;17.83;100.00;97379.16;5110371;28;20217;-54
2023/09/04 02:08:05;;;;;;;2.20;2.00;;;;;;;17.78;100.00;97388.72;5111460;28;20200;-54
2023/09/04 02:10:35;;;;;;;3.28;2.47;;;;;;;17.73;100.00;97381.19;5111187;28;20215;-54
2023/09/04 02:13:01;;;;;;;2.00;1.90;;;;;;;17.66;100.00;97382.88;5111706;28;20201;-55
2023/09/04 02:15:28;;;;;;;2.08;1.90;;;;;;;17.68;100.00;97382.69;5111459;28;20625;-54
2023/09/04 02:17:55;;;;;;;3.28;1.95;;;;;;;17.63;100.00;97380.53;5111016;28;20201;-55
2023/09/04 02:20:22;;;;;;;1.80;1.70;;;;;;;17.56;100.00;97373.31;5110949;28;20259;-54
2023/09/04 02:22:48;;;;;;;2.05;1.95;;;;;;;17.53;100.00;97365.63;5111400;28;20212;-54
2023/09/04 02:25:15;;;;;;;2.00;1.90;;;;;;;17.43;100.00;97363.13;5111263;28;20223;-54
2023/09/04 02:27:43;;;;;;;3.88;2.05;;;;;;;17.41;100.00;97370.47;5112995;28;20221;-55
2023/09/04 02:30:09;;;;;;;1.80;1.60;;;;;;;17.41;100.00;97355.28;5111593;28;20216;-55
2023/09/04 02:32:36;;;;;;;1.90;1.80;;;;;;;17.36;100.00;97362.94;5110901;28;20303;-55
2023/09/04 02:35:03;;;;;;;3.50;2.00;;;;;;;17.35;100.00;97361.31;5110613;28;20201;-55
2023/09/04 02:37:29;;;;;;;1.98;1.80;;;;;;;17.36;100.00;97359.44;5110564;28;20209;-57
2023/09/04 02:39:56;;;;;;;2.28;1.95;;;;;;;17.34;100.00;97359.63;5111685;28;20197;-54
2023/09/04 02:42:22;;;;;;;1.80;1.70;;;;;;;17.34;100.00;97367.66;5111172;28;20201;-56
2023/09/04 02:44:50;;;;;;;1.98;1.88;;;;;;;17.34;100.00;97364.13;5111059;28;20692;-55
2023/09/04 02:47:17;;;;;;;2.10;1.98;;;;;;;17.30;100.00;97363.63;5111105;28;20197;-55
2023/09/04 02:49:43;;;;;;;2.13;1.98;;;;;;;17.30;100.00;97368.97;5110773;28;20201;-55
2023/09/04 02:52:11;;;;;;;2.25;1.92;;;;;;;17.28;100.00;97364.81;5110496;28;20205;-54
2023/09/04 02:54:37;;;;;;;2.08;1.58;;;;;;;17.28;100.00;97362.13;5111335;28;20197;-56
2023/09/04 02:57:04;;;;;;;2.40;2.20;;;;;;;17.28;100.00;97364.81;5110590;28;20201;-55
2023/09/04 02:59:34;;;;;;;2.03;1.92;;;;;;;17.30;100.00;97360.13;5110950;28;20240;-55
2023/09/04 03:02:02;;;;;;;3.20;2.13;;;;;;;17.29;100.00;97355.75;5110540;28;20201;-55
2023/09/04 03:04:28;;;;;;;2.08;1.85;;;;;;;17.28;100.00;97348.78;5111163;28;20206;-54
2023/09/04 03:06:55;;;;;;;2.45;2.17;;;;;;;17.27;100.00;97355.09;5109939;28;20220;-56
2023/09/04 03:09:21;;;;;;;1.90;1.80;;;;;;;17.24;100.00;97358.13;5111264;28;20595;-55
2023/09/04 03:11:47;;;;;;;2.20;2.10;;;;;;;17.23;100.00;97353.78;5111032;28;20224;-56
2023/09/04 03:14:15;;;;;;;3.13;2.10;;;;;;;17.24;100.00;97347.44;5111603;28;20291;-56
2023/09/04 03:16:45;;;;;;;2.65;2.45;;;;;;;17.31;100.00;97351.09;5110962;28;20215;-57
2023/09/04 03:19:13;;;;;;;2.53;2.35;;;;;;;17.32;100.00;97340.22;5110942;28;20860;-54
2023/09/04 03:21:39;;;;;;;2.20;2.00;;;;;;;17.37;100.00;97342.41;5110142;28;20572;-56
2023/09/04 03:24:06;;;;;;;2.20;2.10;;;;;;;17.37;100.00;97342.41;5113269;28;20197;-55
2023/09/04 03:26:33;;;;;;;2.92;2.05;;;;;;;17.41;100.00;97346.41;5116388;28;20552;-57
2023/09/04 03:29:00;;;;;;;2.75;2.40;;;;;;;17.43;100.00;97349.75;5122058;28;20241;-55
2023/09/04 03:31:26;;;;;;;2.17;2.08;;;;;;;17.45;100.00;97344.25;5112712;28;20201;-55
2023/09/04 03:33:53;;;;;;;2.35;2.25;;;;;;;17.49;100.00;97340.22;5110880;28;20232;-56
2023/09/04 03:36:21;;;;;;;1.90;1.80;;;;;;;17.55;100.00;97347.56;5110393;28;20654;-54
2023/09/04 03:38:47;;;;;;;2.10;2.00;;;;;;;17.58;100.00;97349.94;5114413;28;20644;-55
2023/09/04 03:41:14;;;;;;;2.60;1.90;;;;;;;17.60;100.00;97348.78;5114592;28;20205;-55
2023/09/04 03:43:40;;;;;;;2.03;1.90;;;;;;;17.63;100.00;97343.09;5114756;28;20254;-56
2023/09/04 03:46:13;;;;;;;2.10;2.00;;;;;;;17.65;100.00;97346.41;5114175;28;20229;-55
2023/09/04 03:48:40;;;;;;;3.97;2.20;;;;;;;17.63;100.00;97351.09;5114470;28;20245;-56
2023/09/04 03:51:06;;;;;;;2.47;2.25;;;;;;;17.64;100.00;97355.44;5114443;28;21210;-55
2023/09/04 03:53:34;;;;;;;2.30;2.20;;;;;;;17.62;100.00;97357.44;5114227;28;20227;-55
2023/09/04 03:56:04;;;;;;;2.30;2.20;;;;;;;17.60;100.00;97359.47;5116397;28;20265;-54
2023/09/04 03:58:31;;;;;;;2.30;2.20;;;;;;;17.56;100.00;97362.63;5120614;28;20229;-54
2023/09/04 04:00:58;;;;;;;2.50;2.30;;;;;;;17.51;100.00;97365.78;5121583;28;20216;-54
2023/09/04 04:03:25;;;;;;;1.98;1.88;;;;;;;17.48;100.00;97366.13;5120654;28;20193;-56
2023/09/04 04:05:51;;;;;;;2.33;2.22;;;;;;;17.43;100.00;97358.59;5116174;28;20221;-55
2023/09/04 04:08:19;;;;;;;2.65;2.05;;;;;;;17.45;100.00;97353.09;5114096;28;20213;-55
2023/09/04 04:10:47;;;;;;;2.22;2.13;;;;;;;17.34;100.00;97348.94;5116441;27;20277;-55
2023/09/04 04:13:13;;;;;;;2.40;2.20;;;;;;;17.31;100.00;97359.13;5113820;28;20216;-54
2023/09/04 04:15:40;;;;;;;2.70;2.50;;;;;;;17.23;100.00;97362.63;5113754;28;20199;-55
2023/09/04 04:18:09;;;;;;;2.25;2.13;;;;;;;17.22;100.00;97365.47;5113339;28;20781;-55
2023/09/04 04:20:35;;;;;;;2.42;2.22;;;;;;;17.22;100.00;97360.94;5113555;28;20292;-56
2023/09/04 04:23:02;;;;;;;2.38;2.17;;;;;;;17.22;100.00;97365.47;5113912;28;20582;-55
2023/09/04 04:25:29;;;;;;;2.58;2.40;;;;;;;17.12;100.00;97375.47;5114580;28;20224;-54
2023/09/04 04:27:57;;;;;;;3.95;2.30;;;;;;;17.10;100.00;97367.66;5114312;28;20236;-53
2023/09/04 04:30:25;;;;;;;2.80;2.50;;;;;;;17.02;100.00;97367.63;5114172;28;20217;-54
2023/09/04 04:32:51;;;;;;;2.95;2.53;;;;;;;16.99;100.00;97364.44;5112499;28;20656;-54
2023/09/04 04:35:18;;;;;;;2.55;2.35;;;;;;;16.91;100.00;97368.78;5114161;28;20190;-53
2023/09/04 04:37:44;;;;;;;2.85;2.65;;;;;;;16.83;100.00;97366.09;5113876;28;20205;-54
2023/09/04 04:40:11;;;;;;;2.80;2.60;;;;;;;16.80;100.00;97371.75;5114289;28;20208;-54
2023/09/04 04:42:38;;;;;;;2.70;2.50;;;;;;;16.77;100.00;97372.09;5114674;28;20625;-53
2023/09/04 04:45:07;;;;;;;2.78;2.58;;;;;;;16.72;100.00;97378.94;5113456;28;20228;-54
2023/09/04 04:47:33;;;;;;;2.65;2.47;;;;;;;16.74;100.00;97375.09;5112873;28;20300;-54
2023/09/04 04:50:00;;;;;;;2.47;2.38;;;;;;;16.75;100.00;97370.59;5117038;28;20279;-53
2023/09/04 04:52:27;;;;;;;3.80;2.47;;;;;;;16.71;100.00;97363.91;5116574;28;20548;-52
2023/09/04 04:54:55;;;;;;;3.05;2.78;;;;;;;16.73;100.00;97368.06;5118973;28;20517;-53
2023/09/04 04:57:21;;;;;;;5.40;4.47;;;;;;;16.68;100.00;97365.06;5103000;28;20210;-54
2023/09/04 04:59:48;;;;;;;12.32;11.02;;;;;;;16.69;100.00;97374.75;5117390;28;20551;-52
2023/09/04 05:02:17;;;;;;;12.82;10.93;;;;;;;16.76;100.00;97380.25;5115210;28;20213;-53
2023/09/04 05:04:45;;;;;;;5.88;5.28;;;;;;;16.75;100.00;97379.44;5112587;28;20267;-54
2023/09/04 05:07:12;;;;;;;5.07;4.30;;;;;;;16.78;100.00;97383.63;5111852;28;20217;-54
2023/09/04 05:09:38;;;;;;;3.15;2.95;;;;;;;16.78;100.00;97379.13;5112817;28;20209;-54
2023/09/04 05:12:06;;;;;;;3.15;2.95;;;;;;;16.79;100.00;97386.09;5094542;28;20536;-53
2023/09/04 05:14:32;;;;;;;3.63;2.90;;;;;;;16.78;100.00;97383.63;5112714;28;20525;-54
2023/09/04 05:16:59;;;;;;;3.90;3.15;;;;;;;16.82;100.00;97385.81;5112807;28;20224;-54
2023/09/04 05:19:30;;;;;;;3.20;2.90;;;;;;;16.88;100.00;97385.16;5112398;28;20254;-54
2023/09/04 05:21:56;;;;;;;3.22;2.90;;;;;;;16.93;100.00;97380.13;5112279;28;20201;-53
2023/09/04 05:24:23;;;;;;;2.47;2.33;;;;;;;16.97;100.00;97395.84;5113069;28;20204;-53
2023/09/04 05:26:49;;;;;;;3.05;2.72;;;;;;;17.00;100.00;97393.69;5111791;28;20289;-54
2023/09/04 05:29:16;;;;;;;2.80;2.30;;;;;;;17.08;100.00;97400.84;5112513;28;20204;-54
2023/09/04 05:31:42;;;;;;;4.40;2.90;;;;;;;17.10;100.00;97397.03;5112597;28;20208;-53
2023/09/04 05:34:09;;;;;;;3.03;2.78;;;;;;;17.19;100.00;97392.53;5113127;28;20204;-53
2023/09/04 05:36:37;;;;;;;3.63;2.83;;;;;;;17.25;100.00;97391.88;5114985;28;20227;-54
2023/09/04 05:39:04;;;;;;;4.18;2.90;;;;;;;17.30;100.00;97390.38;5122177;28;20644;-53
2023/09/04 05:41:31;;;;;;;3.50;3.20;;;;;;;17.40;100.00;97390.19;5114306;28;20205;-53
2023/09/04 05:43:57;;;;;;;3.13;2.83;;;;;;;17.42;100.00;97393.56;5112339;28;20200;-54
2023/09/04 05:46:24;;;;;;;3.65;2.80;;;;;;;17.49;100.00;97394.56;5112105;28;20225;-54
2023/09/04 05:48:50;;;;;;;3.13;2.83;;;;;;;17.58;100.00;97392.72;5094208;28;20227;-54
2023/09/04 05:51:16;;;;;;;3.47;3.05;;;;;;;17.76;100.00;97394.22;5111666;28;20649;-54
2023/09/04 05:53:44;;;;;;;2.85;2.65;;;;;;;17.92;100.00;97391.50;5112373;28;20197;-53
2023/09/04 05:56:11;;;;;;;2.95;2.72;;;;;;;18.06;100.00;97397.19;5111675;28;20205;-53
2023/09/04 05:58:44;;;;;;;2.90;2.55;;;;;;;18.22;100.00;97397.13;5111774;28;20300;-53
2023/09/04 06:01:10;;;;;;;3.05;2.83;;;;;;;18.53;100.00;97403.38;5111871;28;20216;-53
2023/09/04 06:03:38;;;;;;;2.78;2.58;;;;;;;18.97;100.00;97395.63;5111728;28;20205;-53
2023/09/04 06:06:04;;;;;;;4.05;2.72;;;;;;;19.59;100.00;97399.03;5110463;28;20224;-54
2023/09/04 06:08:31;;;;;;;2.65;2.50;;;;;;;20.17;100.00;97392.09;5111399;28;20557;-55
2023/09/04 06:10:59;;;;;;;3.75;2.78;;;;;;;20.33;100.00;97400.03;5111570;28;20197;-54
2023/09/04 06:13:26;;;;;;;2.67;2.47;;;;;;;20.74;100.00;97403.88;5111503;28;20212;-53
2023/09/04 06:15:53;;;;;;;3.00;2.80;;;;;;;20.90;100.00;97402.00;5111535;28;20201;-53
2023/09/04 06:18:20;;;;;;;2.47;2.28;;;;;;;21.25;98.55;97403.88;5111499;28;20205;-54
2023/09/04 06:20:47;;;;;;;4.10;2.42;;;;;;;21.95;94.08;97395.00;5111117;28;20236;-54
2023/09/04 06:23:14;;;;;;;2.58;2.40;;;;;;;22.07;92.24;97396.13;5111285;28;20205;-54
2023/09/04 06:25:42;;;;;;;2.80;2.55;;;;;;;22.59;89.32;97391.03;5111315;28;20221;-55
2023/09/04 06:28:11;;;;;;;3.50;2.40;;;;;;;22.90;89.30;97395.13;5110751;28;20236;-54
2023/09/04 06:30:38;;;;;;;2.40;2.30;;;;;;;23.34;83.61;97398.19;5111092;28;21319;-54
2023/09/04 06:33:05;;;;;;;3.00;2.65;;;;;;;23.65;83.11;97387.66;5111128;28;20209;-52
2023/09/04 06:35:32;;;;;;;2.08;1.98;;;;;;;24.02;81.97;97388.88;5110788;28;20212;-53
2023/09/04 06:37:59;;;;;;;2.90;2.17;;;;;;;23.93;81.41;97389.31;5110605;28;20205;-52
2023/09/04 06:40:26;;;;;;;2.97;2.22;;;;;;;24.19;82.68;97386.63;5111170;28;20216;-53
2023/09/04 06:42:53;;;;;;;2.20;2.10;;;;;;;24.11;80.57;97386.81;5111245;28;20193;-54
2023/09/04 06:45:21;;;;;;;3.25;2.40;;;;;;;23.55;82.05;97389.94;5111583;28;20507;-54
2023/09/04 06:47:48;;;;;;;2.42;2.20;;;;;;;23.99;81.87;97391.16;5113168;28;20277;-53
2023/09/04 06:50:14;;;;;;;3.67;2.40;;;;;;;23.72;81.73;97393.91;5110960;28;20208;-54
2023/09/04 06:52:41;;;;;;;2.55;2.03;;;;;;;23.45;81.75;97389.50;5110787;28;20212;-54
2023/09/04 06:55:09;;;;;;;2.90;2.60;;;;;;;23.87;81.92;97390.16;5111058;28;20200;-53
2023/09/04 06:57:37;;;;;;;2.25;2.05;;;;;;;23.73;83.65;97381.22;5111142;28;20524;-54
2023/09/04 07:00:08;;;;;;;2.13;2.03;;;;;;;23.58;82.37;97380.59;5110879;28;20812;-53
2023/09/04 07:02:36;;;;;;;2.35;2.22;;;;;;;24.03;82.39;97373.50;5111304;28;20193;-54
2023/09/04 07:05:02;;;;;;;2.58;2.10;;;;;;;23.69;84.75;97380.81;5110662;28;20223;-53
2023/09/04 07:07:29;;;;;;;3.50;2.53;;;;;;;23.88;81.75;97373.72;5111255;28;20221;-53
2023/09/04 07:09:55;;;;;;;2.45;2.25;;;;;;;23.80;82.56;97376.66;5111147;28;20197;-53
2023/09/04 07:12:22;;;;;;;2.65;2.45;;;;;;;24.17;81.74;97373.31;5113267;28;20293;-54
2023/09/04 07:14:49;;;;;;;5.57;2.10;;;;;;;24.10;82.77;97371.63;5115299;28;20193;-52
2023/09/04 07:17:15;;;;;;;2.88;2.50;;;;;;;23.97;81.86;97372.47;5114892;28;20213;-52
2023/09/04 07:19:43;;;;;;;2.40;2.30;;;;;;;23.94;80.85;97383.72;5115283;28;20204;-52
2023/09/04 07:22:10;;;;;;;2.50;2.30;;;;;;;24.00;85.84;97368.53;5114706;28;20193;-53
2023/09/04 07:24:37;;;;;;;2.58;2.38;;;;;;;24.02;83.26;97369.16;5115035;28;20205;-54
2023/09/04 07:27:04;;;;;;;3.25;2.22;;;;;;;23.96;83.95;97369.97;5115263;28;20221;-53
2023/09/04 07:29:31;;;;;;;2.05;1.95;;;;;;;24.01;83.93;97378.28;5116487;28;20714;-58
2023/09/04 07:31:58;;;;;;;2.67;2.30;;;;;;;23.75;83.09;97379.97;5117113;28;20217;-55
2023/09/04 07:34:24;;;;;;;2.60;2.47;;;;;;;23.56;84.70;97383.47;5116716;28;20220;-56
2023/09/04 07:36:52;;;;;;;3.05;2.50;;;;;;;23.41;84.77;97377.47;5117053;28;20208;-54
2023/09/04 07:39:19;;;;;;;2.65;2.45;;;;;;;23.75;84.48;97369.16;5115738;28;20216;-54
2023/09/04 07:41:45;;;;;;;2.42;2.30;;;;;;;23.76;86.28;97376.25;5119601;28;20193;-54
2023/09/04 07:44:12;;;;;;;2.47;2.28;;;;;;;23.81;85.29;97372.09;5116231;28;20197;-54
2023/09/04 07:46:38;;;;;;;3.08;2.50;;;;;;;24.09;84.33;97372.69;5124605;28;20263;-54
2023/09/04 07:49:05;;;;;;;2.90;2.47;;;;;;;24.12;84.13;97366.84;5132963;28;20205;-54
2023/09/04 07:51:31;;;;;;;2.65;2.45;;;;;;;23.95;83.46;97368.34;5125635;28;20201;-53
2023/09/04 07:53:59;;;;;;;3.17;2.33;;;;;;;24.02;82.96;97359.16;5116759;28;20205;-54
2023/09/04 07:56:26;;;;;;;3.15;2.22;;;;;;;23.81;87.30;97367.50;5116576;28;20198;-53
2023/09/04 07:58:52;;;;;;;2.90;2.40;;;;;;;23.59;88.64;97368.75;5115272;28;20212;-56
2023/09/04 08:01:19;;;;;;;2.85;2.40;;;;;;;23.43;87.62;97367.28;5115342;28;20211;-52
2023/09/04 08:03:45;;;;;;;2.55;2.35;;;;;;;23.34;86.93;97364.97;5114527;28;20224;-54
2023/09/04 08:06:11;;;;;;;2.35;2.17;;;;;;;23.12;87.13;97367.00;5114569;28;20231;-57
2023/09/04 08:08:39;;;;;;;2.38;2.28;;;;;;;23.10;88.41;97369.03;5117555;28;20216;-52
2023/09/04 08:11:06;;;;;;;3.80;2.40;;;;;;;23.01;88.39;97364.88;5098675;28;20223;-55
2023/09/04 08:13:33;;;;;;;2.38;2.17;;;;;;;23.23;88.86;97359.13;5114236;28;20205;-53
2023/09/04 08:15:59;;;;;;;3.95;2.50;;;;;;;23.24;87.78;97354.53;5114889;28;20203;-55
2023/09/04 08:18:26;;;;;;;2.60;2.40;;;;;;;23.24;86.40;97360.78;5114640;28;20220;-53
2023/09/04 08:20:52;;;;;;;2.58;2.38;;;;;;;23.52;86.07;97355.25;5113654;28;20543;-53
2023/09/04 08:23:19;;;;;;;3.47;2.22;;;;;;;23.66;85.64;97365.03;5113432;28;20262;-54
2023/09/04 08:25:45;;;;;;;2.45;2.28;;;;;;;23.86;86.92;97367.72;5113824;28;20236;-53
2023/09/04 08:28:13;;;;;;;2.63;2.42;;;;;;;23.85;85.03;97362.50;5112974;28;20228;-53
2023/09/04 08:30:39;;;;;;;4.78;2.47;;;;;;;24.16;84.27;97362.72;5113391;28;20633;-53
2023/09/04 08:33:06;;;;;;;3.28;2.30;;;;;;;24.16;82.44;97357.31;5113293;28;20201;-55
2023/09/04 08:35:32;;;;;;;2.80;2.60;;;;;;;24.26;82.00;97363.13;5112458;28;20197;-53
2023/09/04 08:38:03;;;;;;;2.20;2.10;;;;;;;24.38;81.81;97364.09;5112985;28;20283;-53
2023/09/04 08:40:29;;;;;;;3.40;2.42;;;;;;;24.34;82.02;97368.28;5113079;28;20204;-54
2023/09/04 08:42:56;;;;;;;3.72;2.30;;;;;;;24.55;82.70;97367.19;5113082;28;20495;-55
2023/09/04 08:45:24;;;;;;;2.60;2.42;;;;;;;24.52;81.90;97370.28;5112334;28;20193;-52
2023/09/04 08:47:52;;;;;;;2.55;2.40;;;;;;;24.90;85.64;97367.72;5112989;28;20232;-54
2023/09/04 08:50:19;;;;;;;2.60;2.40;;;;;;;25.08;79.80;97359.69;5112692;28;20201;-53
2023/09/04 08:52:46;;;;;;;2.47;2.30;;;;;;;25.12;78.88;97356.31;5113119;28;20504;-55
2023/09/04 08:55:12;;;;;;;3.17;2.88;;;;;;;25.21;78.35;97356.91;5113187;28;20228;-53
2023/09/04 08:57:40;;;;;;;2.78;2.58;;;;;;;25.38;76.54;97355.34;5112471;28;20668;-54
2023/09/04 09:00:07;;;;;;;2.80;2.60;;;;;;;25.41;74.27;97356.75;5112574;28;20205;-53
2023/09/04 09:02:36;;;;;;;2.63;2.42;;;;;;;25.62;73.93;97351.00;5112650;28;20201;-53
2023/09/04 09:05:03;;;;;;;4.00;2.38;;;;;;;25.57;74.27;97349.00;5111734;28;20204;-54
2023/09/04 09:07:30;;;;;;;2.60;2.40;;;;;;;25.98;75.79;97344.88;5112270;28;20217;-53
2023/09/04 09:10:04;;;;;;;2.80;2.60;;;;;;;26.09;73.08;97336.84;5111895;28;20209;-52
2023/09/04 09:12:31;;;;;;;3.03;2.15;;;;;;;26.17;74.26;97342.00;5112240;28;20189;-51
2023/09/04 09:14:59;;;;;;;2.53;2.42;;;;;;;26.30;73.83;97338.31;5112116;28;20216;-52
2023/09/04 09:17:25;;;;;;;2.63;2.42;;;;;;;26.47;70.96;97333.94;5112281;28;20193;-53
2023/09/04 09:19:53;;;;;;;2.28;2.17;;;;;;;26.67;72.61;97325.59;5111800;28;20299;-53
2023/09/04 09:22:21;;;;;;;2.75;2.55;;;;;;;26.66;71.23;97327.47;5112738;28;20311;-52
2023/09/04 09:24:52;;;;;;;2.47;2.38;;;;;;;26.63;68.17;97324.38;5113615;28;20205;-52
2023/09/04 09:27:19;;;;;;;2.80;2.55;;;;;;;26.84;70.55;97312.22;5112688;28;20239;-52
2023/09/04 09:29:47;;;;;;;3.38;2.55;;;;;;;26.91;72.46;97310.25;5112160;28;20433;-51
2023/09/04 09:32:14;;;;;;;3.28;2.50;;;;;;;26.87;69.98;97311.78;5111593;28;20633;-53
2023/09/04 09:34:40;;;;;;;2.97;2.78;;;;;;;26.80;70.47;97319.13;5110397;28;20648;-52
2023/09/04 09:37:09;;;;;;;3.63;2.95;;;;;;;27.03;70.40;97322.00;5111972;28;20189;-51
2023/09/04 09:39:35;;;;;;;2.67;2.35;;;;;;;26.83;69.59;97310.56;5111367;28;20204;-51
2023/09/04 09:42:03;;;;;;;3.65;2.35;;;;;;;26.91;70.42;97313.81;5111827;28;20220;-53
2023/09/04 09:44:30;;;;;;;2.80;2.30;;;;;;;27.20;68.46;97321.13;5111564;28;20201;-53
2023/09/04 09:46:57;;;;;;;3.25;2.35;;;;;;;27.03;68.56;97316.56;5111923;28;20274;-54
2023/09/04 09:49:23;;;;;;;2.70;2.42;;;;;;;27.21;67.30;97309.19;5111140;28;20201;-55
2023/09/04 09:51:53;;;;;;;3.50;2.40;;;;;;;27.23;67.38;97313.56;5111336;28;20199;-51
2023/09/04 09:54:34;;;;;;;2.28;2.17;;;;;;;27.28;68.15;97303.63;5112833;28;21461;-54
2023/09/04 09:57:01;;;;;;;3.72;2.63;;;;;;;27.31;67.20;97307.81;5114370;28;20204;-52
2023/09/04 09:59:28;;;;;;;3.58;3.30;;;;;;;27.25;66.95;97297.84;5113628;28;20212;-53
2023/09/04 10:01:55;;;;;;;4.93;3.67;;;;;;;27.42;67.38;97301.56;5112014;28;20200;-53
2023/09/04 10:04:22;;;;;;;4.47;2.78;;;;;;;27.29;65.72;97293.59;5112075;28;20201;-52
2023/09/04 10:06:50;;;;;;;4.18;2.50;;;;;;;27.45;65.46;97291.09;5110226;28;20229;-53
2023/09/04 10:09:19;;;;;;;3.63;2.40;;;;;;;27.22;66.58;97293.72;5112011;28;20201;-54
2023/09/04 10:11:54;;;;;;;4.38;2.25;;;;;;;27.66;65.74;97297.84;5110999;28;20220;-52
2023/09/04 10:14:26;;;;;;;2.65;2.42;;;;;;;27.77;65.31;97291.59;5111393;28;20208;-54
2023/09/04 10:16:57;;;;;;;6.47;2.72;;;;;;;27.72;65.47;97293.34;5111054;28;20654;-51
2023/09/04 10:19:25;;;;;;;3.00;2.70;;;;;;;27.64;65.60;97289.09;5110769;28;20205;-53
2023/09/04 10:21:57;;;;;;;3.53;2.35;;;;;;;27.90;68.49;97285.09;5110702;28;20656;-54
2023/09/04 10:24:28;;;;;;;4.05;3.67;;;;;;;27.89;67.73;97283.44;5110748;28;20622;-52
2023/09/04 10:27:01;;;;;;;2.63;2.15;;;;;;;28.18;64.98;97280.59;5110947;28;20216;-52
2023/09/04 10:29:30;;;;;;;2.58;2.40;;;;;;;28.16;63.78;97281.91;5111127;28;20529;-54
2023/09/04 10:31:56;;;;;;;2.85;2.10;;;;;;;28.42;64.68;97272.38;5110884;28;20639;-53
2023/09/04 10:34:23;;;;;;;2.40;2.17;;;;;;;28.49;65.52;97270.34;5111520;28;20228;-54
2023/09/04 10:36:49;;;;;;;2.75;2.65;;;;;;;28.49;62.49;97268.47;5112194;28;20231;-54
2023/09/04 10:39:16;;;;;;;3.03;2.33;;;;;;;28.55;63.18;97261.25;5112569;28;20204;-53
2023/09/04 10:41:43;;;;;;;4.80;2.65;;;;;;;28.78;63.53;97261.19;5113285;28;20536;-53
2023/09/04 10:44:12;;;;;;;3.42;2.28;;;;;;;28.57;63.22;97254.50;5112732;28;20205;-52
2023/09/04 10:46:55;;;;;;;3.20;2.80;;;;;;;28.36;65.39;97257.03;5114196;28;20530;-53
2023/09/04 10:49:30;;;;;;;2.42;2.28;;;;;;;28.65;65.71;97250.56;5115332;28;20208;-53
2023/09/04 10:51:57;;;;;;;2.67;2.47;;;;;;;28.91;64.80;97254.63;5115020;28;20189;-54
2023/09/04 10:54:27;;;;;;;2.50;2.30;;;;;;;28.89;62.54;97245.84;5115252;28;20228;-53
2023/09/04 10:56:55;;;;;;;2.70;2.38;;;;;;;29.09;62.79;97238.88;5115255;28;20232;-53
2023/09/04 10:59:23;;;;;;;2.78;2.58;;;;;;;28.94;60.68;97252.25;5115292;28;20197;-53
2023/09/04 11:01:50;;;;;;;2.88;2.67;;;;;;;28.94;59.03;97238.63;5114352;28;20510;-53
2023/09/04 11:04:30;;;;;;;3.63;2.60;;;;;;;28.92;59.66;97240.75;5116183;28;20513;-53
2023/09/04 11:07:30;;;;;;;3.50;2.42;;;;;;;28.96;58.89;97238.38;5114029;28;20567;-52
2023/09/04 11:10:04;;;;;;;5.32;2.42;;;;;;;29.11;58.64;97238.66;5114335;28;20672;-53
2023/09/04 11:12:33;;;;;;;3.65;2.40;;;;;;;29.12;58.52;97234.84;5115102;28;20544;-54
2023/09/04 11:15:02;;;;;;;2.17;2.08;;;;;;;28.94;60.83;97224.19;5114842;28;20258;-53
2023/09/04 11:17:31;;;;;;;2.70;2.47;;;;;;;29.29;59.40;97218.53;5114833;28;20205;-54
2023/09/04 11:19:58;;;;;;;2.60;2.50;;;;;;;29.22;59.67;97220.56;5114363;28;20295;-52
2023/09/04 11:22:25;;;;;;;2.90;2.70;;;;;;;29.13;58.69;97220.16;5114686;28;20201;-53
2023/09/04 11:24:53;;;;;;;2.50;2.30;;;;;;;29.58;58.44;97220.91;5114918;28;20292;-54
2023/09/04 11:27:19;;;;;;;3.88;2.50;;;;;;;29.41;57.26;97211.94;5114395;28;20289;-53
2023/09/04 11:29:46;;;;;;;4.55;2.65;;;;;;;29.42;57.34;97205.41;5114606;28;20209;-53